createdAt,value
2017-12-20T00:01:49.519Z,1.40
2017-12-20T00:04:15.723Z,1.30
2017-12-20T00:06:41.990Z,1.30
2017-12-20T00:09:08.190Z,1.30
2017-12-20T00:11:34.372Z,1.30
2017-12-20T00:14:01.320Z,1.30
2017-12-20T00:16:27.536Z,1.30
2017-12-20T00:18:54.420Z,1.30
2017-12-20T00:21:20.663Z,1.30
2017-12-20T00:23:46.872Z,1.30
2017-12-20T00:26:13.144Z,1.30
2017-12-20T00:28:39.316Z,1.30
2017-12-20T00:31:05.530Z,1.30
2017-12-20T00:33:31.732Z,1.30
2017-12-20T00:35:58.625Z,1.30
2017-12-20T00:38:24.796Z,1.30
2017-12-20T00:40:51.714Z,1.40
2017-12-20T00:43:17.898Z,1.30
2017-12-20T00:45:44.105Z,1.40
2017-12-20T00:48:11.053Z,1.30
2017-12-20T00:50:37.206Z,1.30
2017-12-20T00:53:03.426Z,1.40
2017-12-20T00:55:29.644Z,1.40
2017-12-20T00:57:56.050Z,1.40
2017-12-20T01:00:23.072Z,1.40
2017-12-20T01:02:49.278Z,1.40
2017-12-20T01:05:15.549Z,1.40
2017-12-20T01:07:42.639Z,1.40
2017-12-20T01:10:08.795Z,1.40
2017-12-20T01:12:35.060Z,1.40
2017-12-20T01:15:01.526Z,1.40
2017-12-20T01:17:27.668Z,1.50
2017-12-20T01:19:53.856Z,1.50
2017-12-20T01:22:20.274Z,1.50
2017-12-20T01:24:46.465Z,1.40
2017-12-20T01:27:12.661Z,1.40
2017-12-20T01:29:38.841Z,1.40
2017-12-20T01:32:05.738Z,1.40
2017-12-20T01:34:31.970Z,1.40
2017-12-20T01:36:58.126Z,1.40
2017-12-20T01:39:25.052Z,1.40
2017-12-20T01:41:51.254Z,1.40
2017-12-20T01:44:17.455Z,1.50
2017-12-20T01:46:43.631Z,1.50
2017-12-20T01:49:09.793Z,1.60
2017-12-20T01:51:36.099Z,1.60
2017-12-20T01:54:03.036Z,1.60
2017-12-20T01:56:29.365Z,1.60
2017-12-20T01:58:55.518Z,1.60
2017-12-20T02:01:21.773Z,1.60
2017-12-20T02:03:47.901Z,1.60
2017-12-20T02:06:14.144Z,1.60
2017-12-20T02:08:40.340Z,1.60
2017-12-20T02:11:06.624Z,1.50
2017-12-20T02:13:32.799Z,1.50
2017-12-20T02:15:59.006Z,1.50
2017-12-20T02:18:25.163Z,1.50
2017-12-20T02:20:51.279Z,1.50
2017-12-20T02:23:17.481Z,1.50
2017-12-20T02:25:43.607Z,1.40
2017-12-20T02:28:09.804Z,1.40
2017-12-20T02:30:35.936Z,1.40
2017-12-20T02:33:02.858Z,1.50
2017-12-20T02:35:29.069Z,1.50
2017-12-20T02:37:55.407Z,1.60
2017-12-20T02:40:21.647Z,1.60
2017-12-20T02:42:47.824Z,1.60
2017-12-20T02:45:14.026Z,1.50
2017-12-20T02:47:40.203Z,1.50
2017-12-20T02:50:06.435Z,1.50
2017-12-20T02:52:32.708Z,1.50
2017-12-20T02:54:58.918Z,1.50
2017-12-20T02:57:25.893Z,1.50
2017-12-20T02:59:52.129Z,1.50
2017-12-20T03:02:19.172Z,1.50
2017-12-20T03:04:45.855Z,1.50
2017-12-20T03:07:12.090Z,1.50
2017-12-20T03:09:39.009Z,1.60
2017-12-20T03:12:05.977Z,1.60
2017-12-20T03:14:32.900Z,1.60
2017-12-20T03:16:59.103Z,1.60
2017-12-20T03:19:25.248Z,1.60
2017-12-20T03:21:51.480Z,1.50
2017-12-20T03:24:17.651Z,1.60
2017-12-20T03:26:43.836Z,1.60
2017-12-20T03:29:10.131Z,1.60
2017-12-20T03:31:36.382Z,1.60
2017-12-20T03:34:02.621Z,1.60
2017-12-20T03:36:28.743Z,1.60
2017-12-20T03:38:54.993Z,1.60
2017-12-20T03:41:21.895Z,1.70
2017-12-20T03:43:48.826Z,1.70
2017-12-20T03:46:14.989Z,1.60
2017-12-20T03:48:41.125Z,1.60
2017-12-20T03:51:08.127Z,1.60
2017-12-20T03:53:34.324Z,1.60
2017-12-20T03:56:00.721Z,1.60
2017-12-20T03:58:27.048Z,1.60
2017-12-20T04:00:53.343Z,1.60
2017-12-20T04:03:19.664Z,1.60
2017-12-20T04:05:45.929Z,1.60
2017-12-20T04:08:13.254Z,1.60
2017-12-20T04:10:39.514Z,1.60
2017-12-20T04:13:05.767Z,1.60
2017-12-20T04:15:32.098Z,1.60
2017-12-20T04:17:58.280Z,1.60
2017-12-20T04:20:24.416Z,1.60
2017-12-20T04:22:50.717Z,1.60
2017-12-20T04:25:17.038Z,1.60
2017-12-20T04:27:43.166Z,1.60
2017-12-20T04:30:09.332Z,1.60
2017-12-20T04:32:36.180Z,1.60
2017-12-20T04:35:03.116Z,1.60
2017-12-20T04:37:29.284Z,1.60
2017-12-20T04:39:55.554Z,1.60
2017-12-20T04:42:21.741Z,1.60
2017-12-20T04:44:47.882Z,1.60
2017-12-20T04:47:14.093Z,1.60
2017-12-20T04:49:40.407Z,1.60
2017-12-20T04:52:06.730Z,1.60
2017-12-20T04:54:32.957Z,1.60
2017-12-20T04:56:59.204Z,1.60
2017-12-20T04:59:25.459Z,1.60
2017-12-20T05:01:51.759Z,1.60
2017-12-20T05:04:17.936Z,1.60
2017-12-20T05:06:44.216Z,1.60
2017-12-20T05:09:10.426Z,1.60
2017-12-20T05:11:36.700Z,1.60
2017-12-20T05:14:02.842Z,1.60
2017-12-20T05:16:29.787Z,1.60
2017-12-20T05:18:55.941Z,1.50
2017-12-20T05:21:22.328Z,1.60
2017-12-20T05:23:48.534Z,1.60
2017-12-20T05:26:14.754Z,1.60
2017-12-20T05:28:40.927Z,1.60
2017-12-20T05:31:07.925Z,1.50
2017-12-20T05:33:34.287Z,1.50
2017-12-20T05:36:00.515Z,1.50
2017-12-20T05:38:27.439Z,1.50
2017-12-20T05:40:53.665Z,1.40
2017-12-20T05:43:19.915Z,1.50
2017-12-20T05:45:46.065Z,1.50
2017-12-20T05:48:12.970Z,1.40
2017-12-20T05:50:39.371Z,1.40
2017-12-20T05:53:05.539Z,1.40
2017-12-20T05:55:31.723Z,1.40
2017-12-20T05:57:57.952Z,1.40
2017-12-20T06:00:24.210Z,1.40
2017-12-20T06:02:50.586Z,1.40
2017-12-20T06:05:16.841Z,1.50
2017-12-20T06:07:43.234Z,1.50
2017-12-20T06:10:09.648Z,1.40
2017-12-20T06:12:36.700Z,1.40
2017-12-20T06:15:03.770Z,1.40
2017-12-20T06:17:29.960Z,1.40
2017-12-20T06:19:56.939Z,1.40
2017-12-20T06:22:23.171Z,1.40
2017-12-20T06:24:49.437Z,1.40
2017-12-20T06:27:15.662Z,1.40
2017-12-20T06:29:42.087Z,1.40
2017-12-20T06:32:08.307Z,1.40
2017-12-20T06:34:34.536Z,1.40
2017-12-20T06:37:00.779Z,1.40
2017-12-20T06:39:26.960Z,1.40
2017-12-20T06:41:53.322Z,1.40
2017-12-20T06:44:19.489Z,1.40
2017-12-20T06:46:46.404Z,1.40
2017-12-20T06:49:12.707Z,1.40
2017-12-20T06:51:39.104Z,1.50
2017-12-20T06:54:05.350Z,1.50
2017-12-20T06:56:31.611Z,1.50
2017-12-20T06:58:57.874Z,1.50
2017-12-20T07:01:24.794Z,1.50
2017-12-20T07:03:50.967Z,1.40
2017-12-20T07:06:17.332Z,1.50
2017-12-20T07:08:43.519Z,1.50
2017-12-20T07:11:09.810Z,1.50
2017-12-20T07:13:35.981Z,1.50
2017-12-20T07:16:02.206Z,1.50
2017-12-20T07:18:28.451Z,1.50
2017-12-20T07:20:54.655Z,1.50
2017-12-20T07:23:21.489Z,1.50
2017-12-20T07:25:47.756Z,1.50
2017-12-20T07:28:13.891Z,1.50
2017-12-20T07:30:40.070Z,1.50
2017-12-20T07:33:06.295Z,1.50
2017-12-20T07:35:32.789Z,1.40
2017-12-20T07:37:59.051Z,1.40
2017-12-20T07:40:25.295Z,1.50
2017-12-20T07:42:51.553Z,1.50
2017-12-20T07:45:17.751Z,1.50
2017-12-20T07:47:44.149Z,1.50
2017-12-20T07:50:11.186Z,1.60
2017-12-20T07:52:38.365Z,1.60
2017-12-20T07:55:04.644Z,1.50
2017-12-20T07:57:30.961Z,1.60
2017-12-20T07:59:57.139Z,1.60
2017-12-20T08:02:23.555Z,1.60
2017-12-20T08:04:50.657Z,1.60
2017-12-20T08:07:16.965Z,1.60
2017-12-20T08:09:43.269Z,1.70
2017-12-20T08:12:10.238Z,1.70
2017-12-20T08:14:37.851Z,1.60
2017-12-20T08:17:05.082Z,1.70
2017-12-20T08:19:31.368Z,1.70
2017-12-20T08:21:58.388Z,1.70
2017-12-20T08:24:25.327Z,1.80
2017-12-20T08:26:52.309Z,1.80
2017-12-20T08:29:18.734Z,1.80
2017-12-20T08:31:45.007Z,1.80
2017-12-20T08:34:11.218Z,1.80
2017-12-20T08:36:37.468Z,1.90
2017-12-20T08:39:04.740Z,1.90
2017-12-20T08:41:31.818Z,2.00
2017-12-20T08:43:58.295Z,2.00
2017-12-20T08:46:24.626Z,2.10
2017-12-20T08:48:51.686Z,2.20
2017-12-20T08:51:18.699Z,2.30
2017-12-20T08:53:44.825Z,2.20
2017-12-20T08:56:11.083Z,2.30
2017-12-20T08:58:37.991Z,2.30
2017-12-20T09:01:04.298Z,2.30
2017-12-20T09:03:30.749Z,2.40
2017-12-20T09:05:57.013Z,2.40
2017-12-20T09:08:23.940Z,2.60
2017-12-20T09:10:51.099Z,2.50
2017-12-20T09:13:18.049Z,2.60
2017-12-20T09:15:45.045Z,2.70
2017-12-20T09:18:11.216Z,2.70
2017-12-20T09:20:38.377Z,2.70
2017-12-20T09:23:05.313Z,2.80
2017-12-20T09:25:32.262Z,2.90
2017-12-20T09:27:59.245Z,2.90
2017-12-20T09:30:25.416Z,2.90
2017-12-20T09:32:51.603Z,3.00
2017-12-20T09:35:18.013Z,3.00
2017-12-20T09:37:44.380Z,3.00
2017-12-20T09:40:10.784Z,3.10
2017-12-20T09:42:37.116Z,3.10
2017-12-20T09:45:03.450Z,3.10
2017-12-20T09:47:29.701Z,3.20
2017-12-20T09:49:55.816Z,3.20
2017-12-20T09:52:22.030Z,3.20
2017-12-20T09:54:48.245Z,3.30
2017-12-20T09:57:14.531Z,3.30
2017-12-20T09:59:41.516Z,3.40
2017-12-20T10:02:07.826Z,3.40
2017-12-20T10:04:34.104Z,3.40
2017-12-20T10:07:00.395Z,3.40
2017-12-20T10:09:26.877Z,3.30
2017-12-20T10:11:53.103Z,3.30
2017-12-20T10:14:19.374Z,3.40
2017-12-20T10:16:45.578Z,3.40
2017-12-20T10:19:12.488Z,3.50
2017-12-20T10:21:38.762Z,3.50
2017-12-20T10:24:04.895Z,3.60
2017-12-20T10:26:31.084Z,3.60
2017-12-20T10:28:57.319Z,3.60
2017-12-20T10:31:23.594Z,3.70
2017-12-20T10:33:49.815Z,3.80
2017-12-20T10:36:16.119Z,3.80
2017-12-20T10:38:43.185Z,3.90
2017-12-20T10:41:09.381Z,3.90
2017-12-20T10:43:36.384Z,4.00
2017-12-20T10:46:02.615Z,4.00
2017-12-20T10:48:28.862Z,4.10
2017-12-20T10:50:55.081Z,4.20
2017-12-20T10:53:21.183Z,4.20
2017-12-20T10:55:47.568Z,4.20
2017-12-20T10:58:15.033Z,4.40
2017-12-20T11:00:41.285Z,4.40
2017-12-20T11:03:07.551Z,4.50
2017-12-20T11:05:33.755Z,4.60
2017-12-20T11:08:00.125Z,4.60
2017-12-20T11:10:27.068Z,4.70
2017-12-20T11:12:53.984Z,4.70
2017-12-20T11:15:20.307Z,4.70
2017-12-20T11:17:46.465Z,4.80
2017-12-20T11:20:12.921Z,4.80
2017-12-20T11:22:39.230Z,4.80
2017-12-20T11:25:06.338Z,4.90
2017-12-20T11:27:32.560Z,4.90
2017-12-20T11:29:58.994Z,4.90
2017-12-20T11:32:25.555Z,4.80
2017-12-20T11:34:51.884Z,4.80
2017-12-20T11:37:18.393Z,4.90
2017-12-20T11:39:44.567Z,4.80
2017-12-20T11:42:11.600Z,4.90
2017-12-20T11:44:38.618Z,4.90
2017-12-20T11:47:04.912Z,4.90
2017-12-20T11:49:31.117Z,4.90
2017-12-20T11:51:58.236Z,4.90
2017-12-20T11:54:24.456Z,4.90
2017-12-20T11:56:50.647Z,4.80
2017-12-20T11:59:16.882Z,4.80
2017-12-20T12:01:43.203Z,4.80
2017-12-20T12:04:09.356Z,4.80
2017-12-20T12:06:35.682Z,4.70
2017-12-20T12:09:01.939Z,4.70
2017-12-20T12:11:29.137Z,4.70
2017-12-20T12:13:55.389Z,4.70
2017-12-20T12:16:21.594Z,4.70
2017-12-20T12:18:47.922Z,4.70
2017-12-20T12:21:14.094Z,4.80
2017-12-20T12:23:41.233Z,4.80
2017-12-20T12:26:07.402Z,4.80
2017-12-20T12:28:33.548Z,4.80
2017-12-20T12:30:59.827Z,4.80
2017-12-20T12:33:26.888Z,4.90
2017-12-20T12:35:53.216Z,4.80
2017-12-20T12:38:19.432Z,4.90
2017-12-20T12:40:46.792Z,5.00
2017-12-20T12:43:13.834Z,5.00
2017-12-20T12:45:40.073Z,5.00
2017-12-20T12:48:06.380Z,5.00
2017-12-20T12:50:33.408Z,4.80
2017-12-20T12:52:59.734Z,4.80
2017-12-20T12:55:26.003Z,4.80
2017-12-20T12:57:52.312Z,4.80
2017-12-20T13:00:19.332Z,4.70
2017-12-20T13:02:45.529Z,4.60
2017-12-20T13:05:11.773Z,4.60
2017-12-20T13:07:38.824Z,4.60
2017-12-20T13:10:05.113Z,4.50
2017-12-20T13:12:31.337Z,4.50
2017-12-20T13:14:57.596Z,4.50
2017-12-20T13:17:23.827Z,4.50
2017-12-20T13:19:50.197Z,4.50
2017-12-20T13:22:17.313Z,4.50
2017-12-20T13:24:43.524Z,4.50
2017-12-20T13:27:09.818Z,4.60
2017-12-20T13:29:36.135Z,4.60
2017-12-20T13:32:03.100Z,4.60
2017-12-20T13:34:29.416Z,4.60
2017-12-20T13:36:55.670Z,4.60
2017-12-20T13:39:21.874Z,4.50
2017-12-20T13:41:48.234Z,4.50
2017-12-20T13:44:14.418Z,4.40
2017-12-20T13:46:40.695Z,4.40
2017-12-20T13:49:06.842Z,4.40
2017-12-20T13:51:33.158Z,4.40
2017-12-20T13:53:59.350Z,4.30
2017-12-20T13:56:25.624Z,4.30
2017-12-20T13:58:51.943Z,4.30
2017-12-20T14:01:18.391Z,4.30
2017-12-20T14:03:44.559Z,4.30
2017-12-20T14:06:10.787Z,4.30
2017-12-20T14:08:37.027Z,4.30
2017-12-20T14:11:03.242Z,4.20
2017-12-20T14:13:29.550Z,4.20
2017-12-20T14:15:56.489Z,4.20
2017-12-20T14:18:23.536Z,4.20
2017-12-20T14:20:50.652Z,4.20
2017-12-20T14:23:16.910Z,4.10
2017-12-20T14:25:44.067Z,4.10
2017-12-20T14:28:11.188Z,4.00
2017-12-20T14:30:37.393Z,4.00
2017-12-20T14:33:03.517Z,4.00
2017-12-20T14:35:29.806Z,4.00
2017-12-20T14:37:55.978Z,4.00
2017-12-20T14:40:22.282Z,4.00
2017-12-20T14:42:48.532Z,4.00
2017-12-20T14:45:14.719Z,4.00
2017-12-20T14:47:40.955Z,4.00
2017-12-20T14:50:07.283Z,3.90
2017-12-20T14:52:33.629Z,3.80
2017-12-20T14:54:59.796Z,3.80
2017-12-20T14:57:26.775Z,3.70
2017-12-20T14:59:53.929Z,3.60
2017-12-20T15:02:21.393Z,3.60
2017-12-20T15:04:47.575Z,3.60
2017-12-20T15:07:14.665Z,3.50
2017-12-20T15:09:40.903Z,3.50
2017-12-20T15:12:07.202Z,3.50
2017-12-20T15:14:33.926Z,3.50
2017-12-20T15:17:01.561Z,3.50
2017-12-20T15:19:27.922Z,3.40
2017-12-20T15:21:54.276Z,3.40
2017-12-20T15:24:20.453Z,3.40
2017-12-20T15:26:46.674Z,3.40
2017-12-20T15:29:12.897Z,3.40
2017-12-20T15:31:39.155Z,3.40
2017-12-20T15:34:05.493Z,3.40
2017-12-20T15:36:31.800Z,3.30
2017-12-20T15:38:58.831Z,3.30
2017-12-20T15:41:25.131Z,3.30
2017-12-20T15:43:51.292Z,3.30
2017-12-20T15:46:17.600Z,3.30
2017-12-20T15:48:43.912Z,3.30
2017-12-20T15:51:10.244Z,3.20
2017-12-20T15:53:37.364Z,3.20
2017-12-20T15:56:03.783Z,3.20
2017-12-20T15:58:30.174Z,3.20
2017-12-20T16:00:56.450Z,3.20
2017-12-20T16:03:22.883Z,3.20
2017-12-20T16:05:49.079Z,3.20
2017-12-20T16:08:16.261Z,3.10
2017-12-20T16:10:42.458Z,3.10
2017-12-20T16:13:09.361Z,3.10
2017-12-20T16:15:35.577Z,3.10
2017-12-20T16:18:02.014Z,3.10
2017-12-20T16:20:28.340Z,3.20
2017-12-20T16:22:54.571Z,3.20
2017-12-20T16:25:20.864Z,3.10
2017-12-20T16:27:47.238Z,3.20
2017-12-20T16:30:13.510Z,3.20
2017-12-20T16:32:40.613Z,3.20
2017-12-20T16:35:07.038Z,3.20
2017-12-20T16:37:33.314Z,3.20
2017-12-20T16:40:00.382Z,3.10
2017-12-20T16:42:26.535Z,3.10
2017-12-20T16:44:52.798Z,3.10
2017-12-20T16:47:19.791Z,3.10
2017-12-20T16:49:46.032Z,3.10
2017-12-20T16:52:12.486Z,3.10
2017-12-20T16:54:38.740Z,3.20
2017-12-20T16:57:05.774Z,3.20
2017-12-20T16:59:32.226Z,3.20
2017-12-20T17:01:59.203Z,3.20
2017-12-20T17:04:25.554Z,3.10
2017-12-20T17:06:51.819Z,3.10
2017-12-20T17:09:18.998Z,3.10
2017-12-20T17:11:45.207Z,3.10
2017-12-20T17:14:11.829Z,3.10
2017-12-20T17:16:38.347Z,3.10
2017-12-20T17:19:04.650Z,3.10
2017-12-20T17:21:31.036Z,3.10
2017-12-20T17:23:57.376Z,3.10
2017-12-20T17:26:23.773Z,3.20
2017-12-20T17:28:50.697Z,3.20
2017-12-20T17:31:17.935Z,3.20
2017-12-20T17:33:44.472Z,3.20
2017-12-20T17:36:10.791Z,3.20
2017-12-20T17:38:37.019Z,3.20
2017-12-20T17:41:03.208Z,3.20
2017-12-20T17:43:29.337Z,3.20
2017-12-20T17:45:55.620Z,3.20
2017-12-20T17:48:21.946Z,3.20
2017-12-20T17:50:48.127Z,3.10
2017-12-20T17:53:14.486Z,3.10
2017-12-20T17:55:40.985Z,3.10
2017-12-20T17:58:07.401Z,3.10
2017-12-20T18:00:33.568Z,3.10
2017-12-20T18:02:59.908Z,3.10
2017-12-20T18:05:26.181Z,3.10
2017-12-20T18:07:53.324Z,3.20
2017-12-20T18:10:20.510Z,3.20
2017-12-20T18:12:47.238Z,3.10
2017-12-20T18:15:13.602Z,3.20
2017-12-20T18:17:40.142Z,3.10
2017-12-20T18:20:07.128Z,3.20
2017-12-20T18:22:34.037Z,3.20
2017-12-20T18:25:00.352Z,3.20
2017-12-20T18:27:26.778Z,3.20
2017-12-20T18:29:53.011Z,3.20
2017-12-20T18:32:19.353Z,3.20
2017-12-20T18:34:46.297Z,3.10
2017-12-20T18:37:14.010Z,3.10
2017-12-20T18:39:40.283Z,3.10
2017-12-20T18:42:06.617Z,3.10
2017-12-20T18:44:33.140Z,3.10
2017-12-20T18:46:59.333Z,3.10
2017-12-20T18:49:25.635Z,3.10
2017-12-20T18:51:52.573Z,3.10
2017-12-20T18:54:19.548Z,3.10
2017-12-20T18:56:45.779Z,3.10
2017-12-20T18:59:12.017Z,3.10
2017-12-20T19:01:38.288Z,3.10
2017-12-20T19:04:04.493Z,3.20
2017-12-20T19:06:31.454Z,3.20
2017-12-20T19:08:57.802Z,3.20
2017-12-20T19:11:24.242Z,3.20
2017-12-20T19:13:50.706Z,3.20
2017-12-20T19:16:16.945Z,3.20
2017-12-20T19:18:43.278Z,3.20
2017-12-20T19:21:09.524Z,3.20
2017-12-20T19:23:35.884Z,3.20
2017-12-20T19:26:02.052Z,3.20
2017-12-20T19:28:28.414Z,3.20
2017-12-20T19:30:54.694Z,3.20
2017-12-20T19:33:21.038Z,3.20
2017-12-20T19:35:47.291Z,3.30
2017-12-20T19:38:13.618Z,3.30
2017-12-20T19:40:39.992Z,3.30
2017-12-20T19:43:06.469Z,3.20
2017-12-20T19:45:32.778Z,3.20
2017-12-20T19:47:58.982Z,3.20
2017-12-20T19:50:25.262Z,3.20
2017-12-20T19:52:51.593Z,3.20
2017-12-20T19:55:17.979Z,3.20
2017-12-20T19:57:44.225Z,3.20
2017-12-20T20:00:10.574Z,3.20
2017-12-20T20:02:36.840Z,3.30
2017-12-20T20:05:02.995Z,3.20
2017-12-20T20:07:29.173Z,3.20
2017-12-20T20:09:55.538Z,3.20
2017-12-20T20:12:21.903Z,3.20
2017-12-20T20:14:48.140Z,3.20
2017-12-20T20:17:14.535Z,3.20
2017-12-20T20:19:40.742Z,3.20
2017-12-20T20:22:06.903Z,3.20
2017-12-20T20:24:33.146Z,3.20
2017-12-20T20:26:59.395Z,3.20
2017-12-20T20:29:26.540Z,3.20
2017-12-20T20:31:52.699Z,3.20
2017-12-20T20:34:19.062Z,3.20
2017-12-20T20:36:45.255Z,3.20
2017-12-20T20:39:11.457Z,3.20
2017-12-20T20:41:38.619Z,3.30
2017-12-20T20:44:05.056Z,3.20
2017-12-20T20:46:31.318Z,3.30
2017-12-20T20:48:57.609Z,3.30
2017-12-20T20:51:24.669Z,3.40
2017-12-20T20:53:51.051Z,3.40
2017-12-20T20:56:17.443Z,3.40
2017-12-20T20:58:43.967Z,3.40
2017-12-20T21:01:10.178Z,3.30
2017-12-20T21:03:36.515Z,3.30
2017-12-20T21:06:04.049Z,3.30
2017-12-20T21:08:31.068Z,3.30
2017-12-20T21:10:58.943Z,3.30
2017-12-20T21:13:25.233Z,3.30
2017-12-20T21:15:51.596Z,3.30
2017-12-20T21:18:18.836Z,3.30
2017-12-20T21:20:45.075Z,3.30
2017-12-20T21:23:13.237Z,3.30
2017-12-20T21:25:39.451Z,3.30
2017-12-20T21:28:05.805Z,3.30
2017-12-20T21:30:31.974Z,3.30
2017-12-20T21:32:58.943Z,3.30
2017-12-20T21:35:25.319Z,3.30
2017-12-20T21:37:52.393Z,3.40
2017-12-20T21:40:19.988Z,3.40
2017-12-20T21:42:46.491Z,3.40
2017-12-20T21:45:12.645Z,3.40
2017-12-20T21:47:38.845Z,3.40
2017-12-20T21:50:04.990Z,3.40
2017-12-20T21:52:31.336Z,3.40
2017-12-20T21:54:57.694Z,3.40
2017-12-20T21:57:24.714Z,3.40
2017-12-20T21:59:51.350Z,3.40
2017-12-20T22:02:17.547Z,3.40
2017-12-20T22:04:44.324Z,3.30
2017-12-20T22:07:10.487Z,3.30
2017-12-20T22:09:37.751Z,3.30
2017-12-20T22:12:04.030Z,3.30
2017-12-20T22:14:30.383Z,3.30
2017-12-20T22:16:57.939Z,3.30
2017-12-20T22:19:25.015Z,3.30
2017-12-20T22:21:51.331Z,3.30
2017-12-20T22:24:17.586Z,3.40
2017-12-20T22:26:43.917Z,3.40
2017-12-20T22:29:10.230Z,3.40
2017-12-20T22:31:36.777Z,3.40
2017-12-20T22:34:03.020Z,3.40
2017-12-20T22:36:29.359Z,3.40
2017-12-20T22:38:55.640Z,3.40
2017-12-20T22:41:21.817Z,3.30
2017-12-20T22:43:48.851Z,3.30
2017-12-20T22:46:15.338Z,3.30
2017-12-20T22:48:41.854Z,3.30
2017-12-20T22:51:08.816Z,3.20
2017-12-20T22:53:35.352Z,3.20
2017-12-20T22:56:01.600Z,3.20
2017-12-20T22:58:27.855Z,3.20
2017-12-20T23:00:54.045Z,3.20
2017-12-20T23:03:20.273Z,3.20
2017-12-20T23:05:46.464Z,3.20
2017-12-20T23:08:13.544Z,3.30
2017-12-20T23:10:39.851Z,3.30
2017-12-20T23:13:06.092Z,3.30
2017-12-20T23:15:32.687Z,3.30
2017-12-20T23:17:58.860Z,3.30
2017-12-20T23:20:25.104Z,3.30
2017-12-20T23:22:51.290Z,3.30
2017-12-20T23:25:18.314Z,3.30
2017-12-20T23:27:44.462Z,3.30
2017-12-20T23:30:11.442Z,3.30
2017-12-20T23:32:38.117Z,3.30
2017-12-20T23:35:04.632Z,3.40
2017-12-20T23:37:30.792Z,3.40
2017-12-20T23:39:57.712Z,3.30
2017-12-20T23:42:24.669Z,3.30
2017-12-20T23:44:50.900Z,3.30
2017-12-20T23:47:17.833Z,3.30
2017-12-20T23:49:44.025Z,3.30
2017-12-20T23:52:10.630Z,3.30
2017-12-20T23:54:36.812Z,3.30
2017-12-20T23:57:03.038Z,3.30
2017-12-20T23:59:29.262Z,3.30
